Houston, Texas
Traffic Map
Current Weather Conditions
Houston, Texas
Clear
Clear
64°
Feels Like: 64°
Wind Chill: 64° Ceiling: Unl
Heat Index: 64° Visibility: 10mi
Dew Point: 50° Wind: 0mph
Humidity: 60% Direction: ° ()
Pressure: 29.8in Gusts: 0mph
Raw Report DataKIAH 230153Z 00000KT 10SM CLR 18/10 A2980 RMK AO2 SLP091 T01780100
Traffic Incident Summary
Active as of:
Severity:
Category:
InformationThere was an issue retrieving the traffic information for this location. Please try a different location or try again shortly.
Advertisements
Track Severe Weather on mobile